createdAt,value
2023-02-01T00:01:30.991Z,100033.16
2023-02-01T00:03:02.887Z,100027.97
2023-02-01T00:04:34.787Z,100021.13
2023-02-01T00:06:06.823Z,100024.53
2023-02-01T00:07:38.761Z,100019.41
2023-02-01T00:10:50.610Z,100025.38
2023-02-01T00:12:22.494Z,100027.94
2023-02-01T00:13:56.844Z,100030.50
2023-02-01T00:15:28.673Z,100021.03
2023-02-01T00:17:00.596Z,100023.59
2023-02-01T00:18:32.713Z,100026.22
2023-02-01T00:20:04.774Z,100025.34
2023-02-01T00:21:36.614Z,100022.72
2023-02-01T00:23:09.901Z,100021.84
2023-02-01T00:24:41.933Z,100025.31
2023-02-01T00:26:17.942Z,100023.66
2023-02-01T00:27:50.568Z,100017.63
2023-02-01T00:29:22.424Z,100026.06
2023-02-01T00:30:58.149Z,100017.50
2023-02-01T00:32:29.987Z,100019.28
2023-02-01T00:34:01.816Z,100023.56
2023-02-01T00:35:35.107Z,100026.09
2023-02-01T00:37:09.623Z,100026.16
2023-02-01T00:38:41.694Z,100011.63
2023-02-01T00:40:13.728Z,100015.06
2023-02-01T00:41:45.545Z,100013.28
2023-02-01T00:43:17.422Z,100014.13
2023-02-01T00:44:49.423Z,100018.41
2023-02-01T00:46:21.573Z,100019.25
2023-02-01T00:47:53.397Z,100008.13
2023-02-01T00:49:25.518Z,100006.50
2023-02-01T00:51:00.673Z,100008.19
2023-02-01T00:52:32.606Z,100008.19
2023-02-01T00:54:04.895Z,100009.94
2023-02-01T00:55:36.769Z,100006.50
2023-02-01T00:57:08.562Z,100002.19
2023-02-01T00:58:40.491Z,100003.00
2023-02-01T01:00:12.540Z,100004.69
2023-02-01T01:01:44.834Z,99996.88
2023-02-01T01:03:19.828Z,100003.78
2023-02-01T01:04:51.953Z,100005.50
2023-02-01T01:06:25.329Z,99991.88
2023-02-01T01:07:57.193Z,99992.75
2023-02-01T01:09:29.125Z,99996.13
2023-02-01T01:11:05.127Z,99993.59
2023-02-01T01:12:36.970Z,99985.00
2023-02-01T01:14:10.625Z,99992.72
2023-02-01T01:15:42.527Z,99988.38
2023-02-01T01:17:14.433Z,99992.72
2023-02-01T01:18:46.331Z,99993.63
2023-02-01T01:20:18.571Z,99997.03
2023-02-01T01:21:50.499Z,99991.06
2023-02-01T01:25:01.666Z,99988.50
2023-02-01T01:26:33.550Z,99991.91
2023-02-01T01:28:05.415Z,99992.75
2023-02-01T01:29:37.513Z,99985.09
2023-02-01T01:31:10.771Z,99991.88
2023-02-01T01:32:42.718Z,99994.44
2023-02-01T01:34:14.555Z,99990.13
2023-02-01T01:35:46.603Z,99990.19
2023-02-01T01:37:18.637Z,99991.88
2023-02-01T01:38:50.633Z,99990.19
2023-02-01T01:40:22.759Z,99990.19
2023-02-01T01:41:54.892Z,99991.91
2023-02-01T01:43:26.778Z,99998.72
2023-02-01T01:44:58.755Z,99998.75
2023-02-01T01:46:33.823Z,100001.38
2023-02-01T01:48:08.035Z,100002.19
2023-02-01T01:49:39.856Z,100001.31
2023-02-01T01:51:12.265Z,100002.19
2023-02-01T01:54:21.506Z,99995.34
2023-02-01T01:55:53.412Z,99997.94
2023-02-01T01:57:28.987Z,99998.75
2023-02-01T01:59:00.890Z,99996.25
2023-02-01T02:00:33.207Z,99995.47
2023-02-01T02:02:05.156Z,99980.81
2023-02-01T02:03:39.498Z,99982.59
2023-02-01T02:05:11.351Z,99989.44
2023-02-01T02:06:51.428Z,99981.72
2023-02-01T02:08:23.257Z,99983.41
2023-02-01T02:10:01.043Z,99969.72
2023-02-01T02:11:33.292Z,99983.34
2023-02-01T02:13:05.175Z,99988.53
2023-02-01T02:14:36.944Z,99983.34
2023-02-01T02:16:11.644Z,99985.97
2023-02-01T02:17:51.109Z,99987.66
2023-02-01T02:19:41.768Z,99993.63
2023-02-01T02:21:24.993Z,99993.59
2023-02-01T02:22:59.737Z,99988.44
2023-02-01T02:24:46.615Z,99985.00
2023-02-01T02:26:21.413Z,99995.28
2023-02-01T02:28:11.779Z,99994.41
2023-02-01T02:29:51.475Z,99992.75
2023-02-01T02:31:42.523Z,99989.38
2023-02-01T02:33:17.483Z,99991.88
2023-02-01T02:34:57.162Z,99994.44
2023-02-01T02:36:35.546Z,99991.91
2023-02-01T02:38:23.945Z,99997.06
2023-02-01T02:40:01.497Z,99991.84
2023-02-01T02:41:52.920Z,99994.34
2023-02-01T02:43:45.115Z,99995.16
2023-02-01T02:45:58.629Z,99995.13
2023-02-01T02:47:50.702Z,99997.81
2023-02-01T02:49:37.829Z,99991.84
2023-02-01T02:51:48.312Z,99993.50
2023-02-01T02:53:42.745Z,100001.97
2023-02-01T02:55:14.602Z,99991.59
2023-02-01T02:57:05.167Z,99992.47
2023-02-01T02:58:55.783Z,99999.34
2023-02-01T03:00:49.552Z,99996.78
2023-02-01T03:02:39.868Z,100005.22
2023-02-01T03:04:15.812Z,100005.31
2023-02-01T03:05:51.828Z,100003.56
2023-02-01T03:07:42.116Z,100008.69
2023-02-01T03:09:15.375Z,100008.69
2023-02-01T03:11:06.729Z,100009.53
2023-02-01T03:12:56.802Z,100006.06
2023-02-01T03:14:28.687Z,100011.13
2023-02-01T03:16:00.607Z,100013.59
2023-02-01T03:17:34.189Z,100024.66
2023-02-01T03:19:10.831Z,100023.75
2023-02-01T03:20:44.262Z,100023.75
2023-02-01T03:23:48.704Z,100026.22
2023-02-01T03:25:23.482Z,100024.47
2023-02-01T03:26:56.276Z,100029.47
2023-02-01T03:28:28.645Z,100032.78
2023-02-01T03:30:02.329Z,100030.06
2023-02-01T03:31:34.223Z,100027.44
2023-02-01T03:33:12.747Z,100026.38
2023-02-01T03:34:44.645Z,100019.53
2023-02-01T03:36:17.768Z,100022.03
2023-02-01T03:37:49.536Z,100026.13
2023-02-01T03:39:33.155Z,100021.63
2023-02-01T03:41:14.206Z,100019.63
2023-02-01T03:42:47.673Z,100024.44
2023-02-01T03:44:23.969Z,100016.53
2023-02-01T03:45:57.115Z,100014.59
2023-02-01T03:47:29.520Z,100018.63
2023-02-01T03:49:02.619Z,100017.69
2023-02-01T03:50:35.057Z,100016.72
2023-02-01T03:53:40.817Z,100020.06
2023-02-01T03:55:13.950Z,100020.81
2023-02-01T03:56:46.105Z,100019.06
2023-02-01T03:58:19.032Z,100016.47
2023-02-01T03:59:50.998Z,100013.91
2023-02-01T04:01:22.929Z,100017.38
2023-02-01T04:02:54.760Z,100017.38
2023-02-01T04:04:26.780Z,100011.44
2023-02-01T04:05:58.660Z,100005.50
2023-02-01T04:07:30.443Z,100014.03
2023-02-01T04:09:02.259Z,100008.81
2023-02-01T04:10:36.591Z,100010.44
2023-02-01T04:12:08.457Z,100001.91
2023-02-01T04:13:40.886Z,100006.94
2023-02-01T04:15:12.762Z,100002.59
2023-02-01T04:16:44.675Z,100003.53
2023-02-01T04:18:16.560Z,100006.06
2023-02-01T04:19:49.699Z,100007.63
2023-02-01T04:22:58.281Z,100004.88
2023-02-01T04:24:30.146Z,100009.09
2023-02-01T04:26:02.699Z,100015.84
2023-02-01T04:27:34.788Z,100013.22
2023-02-01T04:29:10.085Z,100012.53
2023-02-01T04:30:42.072Z,100010.34
2023-02-01T04:32:13.977Z,100018.44
2023-02-01T04:33:45.786Z,100006.00
2023-02-01T04:35:19.200Z,100007.03
2023-02-01T04:36:51.135Z,100001.31
2023-02-01T04:38:22.979Z,100007.47
2023-02-01T04:39:55.057Z,100006.84
2023-02-01T04:41:26.976Z,100009.53
2023-02-01T04:42:58.978Z,100004.59
2023-02-01T04:44:30.971Z,100007.25
2023-02-01T04:46:03.536Z,100004.84
2023-02-01T04:47:35.608Z,100006.66
2023-02-01T04:49:07.523Z,100008.41
2023-02-01T04:52:16.611Z,100004.28
2023-02-01T04:53:48.389Z,100006.91
2023-02-01T04:55:20.254Z,100009.50
2023-02-01T04:56:52.123Z,100006.97
2023-02-01T04:58:23.964Z,100012.06
2023-02-01T04:59:55.814Z,100011.19
2023-02-01T05:01:27.631Z,100013.59
2023-02-01T05:02:59.428Z,100007.38
2023-02-01T05:04:31.489Z,100010.59
2023-02-01T05:06:05.303Z,100012.13
2023-02-01T05:07:37.164Z,100011.09
2023-02-01T05:09:08.984Z,100006.75
2023-02-01T05:10:40.801Z,100000.72
2023-02-01T05:12:31.266Z,100008.22
2023-02-01T05:14:05.293Z,100013.09
2023-02-01T05:15:37.140Z,100010.34
2023-02-01T05:17:09.039Z,100021.22
2023-02-01T05:18:40.896Z,100020.19
2023-02-01T05:21:45.556Z,100018.13
2023-02-01T05:23:17.360Z,100019.69
2023-02-01T05:24:49.199Z,100015.31
2023-02-01T05:26:21.094Z,100009.28
2023-02-01T05:27:52.951Z,100019.47
2023-02-01T05:29:24.815Z,100022.06
2023-02-01T05:30:56.717Z,100020.41
2023-02-01T05:32:28.815Z,100018.69
2023-02-01T05:34:00.743Z,100017.88
2023-02-01T05:35:32.777Z,100017.88
2023-02-01T05:37:04.664Z,100022.13
2023-02-01T05:38:36.517Z,100028.88
2023-02-01T05:40:08.515Z,100024.59
2023-02-01T05:41:40.364Z,100023.66
2023-02-01T05:43:12.215Z,100024.41
2023-02-01T05:44:44.148Z,100032.81
2023-02-01T05:46:16.053Z,100030.16
2023-02-01T05:47:47.867Z,100026.72
2023-02-01T05:49:19.675Z,100030.06
2023-02-01T05:50:51.771Z,100033.47
2023-02-01T05:52:23.671Z,100033.38
2023-02-01T05:53:55.570Z,100034.22
2023-02-01T05:55:27.389Z,100037.69
2023-02-01T05:56:59.240Z,100031.78
2023-02-01T05:58:31.414Z,100031.69
2023-02-01T06:00:04.065Z,100040.84
2023-02-01T06:01:35.885Z,100044.09
2023-02-01T06:03:07.897Z,100043.25
2023-02-01T06:04:40.480Z,100039.84
2023-02-01T06:06:12.370Z,100048.44
2023-02-01T06:07:44.230Z,100044.34
2023-02-01T06:09:16.082Z,100049.53
2023-02-01T06:10:47.895Z,100051.31
2023-02-01T06:12:19.761Z,100046.22
2023-02-01T06:13:51.548Z,100045.47
2023-02-01T06:15:23.443Z,100052.38
2023-02-01T06:16:56.211Z,100052.47
2023-02-01T06:18:28.144Z,100050.00
2023-02-01T06:20:00.089Z,100047.50
2023-02-01T06:21:31.981Z,100047.59
2023-02-01T06:23:03.856Z,100054.44
2023-02-01T06:24:35.880Z,100058.75
2023-02-01T06:26:09.181Z,100059.66
2023-02-01T06:27:41.129Z,100061.38
2023-02-01T06:29:13.090Z,100061.53
2023-02-01T06:30:47.371Z,100065.03
2023-02-01T06:32:19.467Z,100067.78
2023-02-01T06:33:51.407Z,100070.59
2023-02-01T06:35:23.381Z,100065.84
2023-02-01T06:36:56.322Z,100067.81
2023-02-01T06:38:28.163Z,100059.56
2023-02-01T06:40:00.106Z,100061.50
2023-02-01T06:41:31.992Z,100068.50
2023-02-01T06:43:03.974Z,100061.03
2023-02-01T06:44:36.039Z,100063.78
2023-02-01T06:46:08.939Z,100071.66
2023-02-01T06:47:40.907Z,100074.38
2023-02-01T06:50:51.928Z,100073.84
2023-02-01T06:52:23.800Z,100074.00
2023-02-01T06:53:55.681Z,100081.88
2023-02-01T06:55:29.963Z,100068.41
2023-02-01T06:57:01.765Z,100077.91
2023-02-01T06:58:34.214Z,100074.56
2023-02-01T07:00:06.572Z,100089.16
2023-02-01T07:01:38.794Z,100081.63
2023-02-01T07:03:10.815Z,100073.19
2023-02-01T07:04:42.748Z,100074.13
2023-02-01T07:06:14.712Z,100075.91
2023-02-01T07:07:46.667Z,100077.72
2023-02-01T07:09:18.588Z,100088.91
2023-02-01T07:10:50.488Z,100084.72
2023-02-01T07:12:22.331Z,100089.91
2023-02-01T07:13:54.293Z,100087.41
2023-02-01T07:15:26.149Z,100095.13
2023-02-01T07:16:58.034Z,100092.63
2023-02-01T07:20:03.061Z,100091.06
2023-02-01T07:21:35.086Z,100089.41
2023-02-01T07:23:06.986Z,100092.00
2023-02-01T07:24:38.851Z,100091.16
2023-02-01T07:26:12.279Z,100095.53
2023-02-01T07:27:44.114Z,100087.84
2023-02-01T07:29:16.080Z,100099.00
2023-02-01T07:30:52.159Z,100098.16
2023-02-01T07:32:24.133Z,100099.06
2023-02-01T07:33:57.611Z,100092.22
2023-02-01T07:35:29.762Z,100099.97
2023-02-01T07:37:01.566Z,100100.03
2023-02-01T07:38:33.701Z,100097.47
2023-02-01T07:40:05.837Z,100097.47
2023-02-01T07:41:37.874Z,100094.13
2023-02-01T07:43:09.915Z,100087.31
2023-02-01T07:44:42.005Z,100089.00
2023-02-01T07:46:14.008Z,100095.88
2023-02-01T07:47:45.953Z,100082.22
2023-02-01T07:49:18.877Z,100084.81
2023-02-01T07:50:58.127Z,100083.09
2023-02-01T07:52:30.441Z,100083.13
2023-02-01T07:54:02.332Z,100073.78
2023-02-01T07:55:36.090Z,100073.72
2023-02-01T07:57:10.097Z,100073.81
2023-02-01T07:58:44.973Z,100084.13
2023-02-01T08:00:35.373Z,100080.72
2023-02-01T08:02:07.292Z,100079.91
2023-02-01T08:03:39.246Z,100076.47
2023-02-01T08:05:10.997Z,100083.38
2023-02-01T08:06:45.973Z,100086.00
2023-02-01T08:08:17.819Z,100084.25
2023-02-01T08:09:49.703Z,100087.69
2023-02-01T08:11:24.808Z,100079.13
2023-02-01T08:12:59.443Z,100078.31
2023-02-01T08:14:31.302Z,100069.72
2023-02-01T08:16:04.183Z,100079.16
2023-02-01T08:19:08.868Z,100086.03
2023-02-01T08:20:42.801Z,100091.19
2023-02-01T08:22:14.608Z,100090.34
2023-02-01T08:23:46.475Z,100084.34
2023-02-01T08:25:18.493Z,100101.47
2023-02-01T08:26:50.406Z,100080.03
2023-02-01T08:28:22.379Z,100092.88
2023-02-01T08:29:55.345Z,100087.78
2023-02-01T08:31:28.134Z,100089.47
2023-02-01T08:33:00.168Z,100086.03
2023-02-01T08:34:33.587Z,100096.28
2023-02-01T08:36:06.888Z,100090.34
2023-02-01T08:37:38.857Z,100089.50
2023-02-01T08:39:11.595Z,100091.22
2023-02-01T08:40:43.505Z,100088.63
2023-02-01T08:42:34.034Z,100090.34
2023-02-01T08:44:05.977Z,100090.34
2023-02-01T08:45:37.816Z,100086.06
2023-02-01T08:48:43.457Z,100086.94
2023-02-01T08:50:15.710Z,100098.06
2023-02-01T08:51:47.511Z,100090.41
2023-02-01T08:53:19.757Z,100087.88
2023-02-01T08:54:51.599Z,100103.28
2023-02-01T08:56:23.702Z,100086.19
2023-02-01T08:57:55.606Z,100087.06
2023-02-01T08:59:28.651Z,100087.03
2023-02-01T09:01:06.229Z,100088.81
2023-02-01T09:02:38.090Z,100098.25
2023-02-01T09:04:09.929Z,100099.13
2023-02-01T09:05:49.496Z,100089.69
2023-02-01T09:07:22.137Z,100094.00
2023-02-01T09:08:54.317Z,100092.28
2023-02-01T09:10:34.594Z,100095.72
2023-02-01T09:12:06.905Z,100082.84
2023-02-01T09:13:38.720Z,100095.72
2023-02-01T09:15:10.731Z,100090.53
2023-02-01T09:16:42.630Z,100099.13
2023-02-01T09:18:14.642Z,100086.25
2023-02-01T09:19:46.726Z,100087.13
2023-02-01T09:22:59.076Z,100083.66
2023-02-01T09:24:30.932Z,100072.50
2023-02-01T09:26:03.224Z,100076.81
2023-02-01T09:27:35.568Z,100071.63
2023-02-01T09:29:13.512Z,100075.06
2023-02-01T09:30:45.566Z,100072.50
2023-02-01T09:32:18.243Z,100063.91
2023-02-01T09:33:50.214Z,100068.22
2023-02-01T09:35:22.437Z,100065.63
2023-02-01T09:36:54.828Z,100064.78
2023-02-01T09:38:29.675Z,100049.28
2023-02-01T09:40:01.517Z,100046.69
2023-02-01T09:41:33.368Z,100043.22
2023-02-01T09:43:08.392Z,100044.94
2023-02-01T09:44:55.210Z,100042.38
2023-02-01T09:46:31.217Z,100032.03
2023-02-01T09:48:13.844Z,100028.59
2023-02-01T09:49:57.309Z,100023.44
2023-02-01T09:51:30.219Z,100029.44
2023-02-01T09:53:06.779Z,100036.28
2023-02-01T09:55:02.030Z,100016.53
2023-02-01T09:56:57.192Z,100011.38
2023-02-01T09:58:31.518Z,100018.22
2023-02-01T10:00:07.405Z,100027.66
2023-02-01T10:01:39.547Z,100013.94
2023-02-01T10:03:14.605Z,100019.94
2023-02-01T10:04:46.578Z,100019.06
2023-02-01T10:06:27.873Z,100020.78
2023-02-01T10:08:10.359Z,100023.38
2023-02-01T10:10:00.785Z,100022.47
2023-02-01T10:11:51.275Z,100027.63
2023-02-01T10:13:35.362Z,100025.88
2023-02-01T10:15:13.171Z,100019.06
2023-02-01T10:16:48.208Z,100013.94
2023-02-01T10:18:26.215Z,100021.63
2023-02-01T10:20:00.906Z,100026.78
2023-02-01T10:21:45.185Z,100025.94
2023-02-01T10:23:34.645Z,100027.63
2023-02-01T10:25:06.935Z,100026.75
2023-02-01T10:26:39.177Z,100022.41
2023-02-01T10:28:14.133Z,100024.16
2023-02-01T10:29:47.229Z,100021.53
2023-02-01T10:31:19.897Z,100026.69
2023-02-01T10:33:12.172Z,100023.25
2023-02-01T10:34:44.849Z,100019.78
2023-02-01T10:36:25.571Z,100013.75
2023-02-01T10:37:58.387Z,100010.31
2023-02-01T10:39:30.308Z,100005.13
2023-02-01T10:41:06.228Z,99996.50
2023-02-01T10:42:38.041Z,99998.19
2023-02-01T10:44:17.162Z,99998.19
2023-02-01T10:45:48.998Z,100007.56
2023-02-01T10:47:21.059Z,100006.66
2023-02-01T10:48:54.269Z,100001.38
2023-02-01T10:50:40.547Z,99999.59
2023-02-01T10:52:20.080Z,99997.81
2023-02-01T10:53:54.476Z,100000.50
2023-02-01T10:55:40.081Z,99997.88
2023-02-01T10:57:33.315Z,99991.84
2023-02-01T10:59:06.048Z,99994.41
2023-02-01T11:00:57.917Z,99986.66
2023-02-01T11:02:34.085Z,99978.00
2023-02-01T11:04:07.217Z,99967.66
2023-02-01T11:05:45.669Z,99965.81
2023-02-01T11:07:26.726Z,99966.66
2023-02-01T11:08:59.650Z,99963.19
2023-02-01T11:10:37.739Z,99958.81
2023-02-01T11:12:30.165Z,99969.22
2023-02-01T11:14:05.679Z,99970.03
2023-02-01T11:15:37.597Z,99967.38
2023-02-01T11:17:15.392Z,99961.34
2023-02-01T11:18:48.130Z,99958.78
2023-02-01T11:20:21.393Z,99948.53
2023-02-01T11:21:54.174Z,99956.25
2023-02-01T11:23:26.740Z,99935.44
2023-02-01T11:24:58.573Z,99925.94
2023-02-01T11:26:30.501Z,99924.28
2023-02-01T11:28:02.375Z,99923.44
2023-02-01T11:29:36.936Z,99929.56
2023-02-01T11:31:10.914Z,99926.16
2023-02-01T11:32:43.203Z,99918.44
2023-02-01T11:34:21.372Z,99920.97
2023-02-01T11:35:53.291Z,99923.56
2023-02-01T11:37:25.259Z,99921.75
2023-02-01T11:39:11.150Z,99913.91
2023-02-01T11:40:43.109Z,99913.78
2023-02-01T11:42:16.033Z,99905.03
2023-02-01T11:43:59.174Z,99923.97
2023-02-01T11:45:32.001Z,99913.50
2023-02-01T11:47:22.713Z,99903.91
2023-02-01T11:50:44.189Z,99931.13
2023-02-01T11:52:22.107Z,99907.78
2023-02-01T11:54:03.251Z,99905.19
2023-02-01T11:55:44.466Z,99902.78
2023-02-01T11:57:35.354Z,99894.97
2023-02-01T11:59:13.391Z,99914.00
2023-02-01T12:00:50.087Z,99889.81
2023-02-01T12:02:27.902Z,99898.31
2023-02-01T12:04:15.716Z,99894.03
2023-02-01T12:05:47.731Z,99891.31
2023-02-01T12:07:37.528Z,99898.91
2023-02-01T12:09:09.571Z,99908.28
2023-02-01T12:10:41.635Z,99891.84
2023-02-01T12:12:32.211Z,99911.56
2023-02-01T12:14:07.994Z,99914.22
2023-02-01T12:15:58.764Z,99916.78
2023-02-01T12:17:49.492Z,99913.50
2023-02-01T12:19:25.751Z,99906.56
2023-02-01T12:21:16.046Z,99900.47
2023-02-01T12:22:54.741Z,99903.25
2023-02-01T12:24:36.024Z,99913.50
2023-02-01T12:26:23.036Z,99911.66
2023-02-01T12:28:04.616Z,99902.19
2023-02-01T12:29:56.963Z,99914.13
2023-02-01T12:31:28.870Z,99902.91
2023-02-01T12:33:06.644Z,99903.56
2023-02-01T12:34:38.719Z,99888.75
2023-02-01T12:36:12.482Z,99890.56
2023-02-01T12:37:46.808Z,99893.84
2023-02-01T12:39:25.632Z,99897.38
2023-02-01T12:41:10.053Z,99888.97
2023-02-01T12:42:43.622Z,99896.72
2023-02-01T12:44:33.708Z,99889.91
2023-02-01T12:46:10.308Z,99896.00
2023-02-01T12:48:11.714Z,99894.31
2023-02-01T12:50:04.001Z,99893.50
2023-02-01T12:51:37.083Z,99882.22
2023-02-01T12:54:50.793Z,99888.34
2023-02-01T12:56:24.314Z,99895.09
2023-02-01T12:58:08.731Z,99895.22
2023-02-01T13:00:03.161Z,99879.53
2023-02-01T13:01:42.749Z,99880.34
2023-02-01T13:03:26.913Z,99885.56
2023-02-01T13:05:05.173Z,99896.91
2023-02-01T13:06:39.229Z,99896.38
2023-02-01T13:08:16.128Z,99900.72
2023-02-01T13:09:55.351Z,99900.72
2023-02-01T13:11:27.197Z,99903.34
2023-02-01T13:13:05.817Z,99908.47
2023-02-01T13:14:43.867Z,99901.66
2023-02-01T13:16:17.390Z,99896.66
2023-02-01T13:17:50.827Z,99900.09
2023-02-01T13:19:48.162Z,99902.59
2023-02-01T13:21:21.934Z,99899.13
2023-02-01T13:24:32.909Z,99894.19
2023-02-01T13:26:05.041Z,99901.16
2023-02-01T13:27:36.969Z,99900.38
2023-02-01T13:29:10.323Z,99898.88
2023-02-01T13:30:54.153Z,99892.06
2023-02-01T13:33:50.754Z,99897.16
2023-02-01T13:34:43.886Z,99886.03
2023-02-01T13:36:19.283Z,99895.59
2023-02-01T13:37:54.198Z,99890.31
2023-02-01T13:39:29.154Z,99897.22
2023-02-01T13:41:19.529Z,99893.81
2023-02-01T13:42:51.441Z,99898.19
2023-02-01T13:44:34.196Z,99899.97
2023-02-01T13:46:07.314Z,99904.28
2023-02-01T13:47:42.546Z,99899.06
2023-02-01T13:49:21.884Z,99904.28
2023-02-01T13:50:55.251Z,99898.28
2023-02-01T13:52:30.190Z,99896.56
2023-02-01T13:54:02.129Z,99906.13
2023-02-01T13:55:35.361Z,99900.97
2023-02-01T13:57:08.215Z,99898.28
2023-02-01T13:58:41.302Z,99893.09
2023-02-01T14:00:35.123Z,99902.63
2023-02-01T14:02:26.254Z,99907.00
2023-02-01T14:04:08.221Z,99906.19
2023-02-01T14:05:40.104Z,99911.34
2023-02-01T14:07:18.570Z,99907.00
2023-02-01T14:09:11.431Z,99903.59
2023-02-01T14:10:49.076Z,99908.81
2023-02-01T14:12:39.633Z,99893.31
2023-02-01T14:14:17.353Z,99903.66
2023-02-01T14:16:04.951Z,99911.38
2023-02-01T14:17:37.152Z,99918.31
2023-02-01T14:19:10.481Z,99908.88
2023-02-01T14:20:45.092Z,99914.91
2023-02-01T14:22:25.487Z,99902.81
2023-02-01T14:24:19.862Z,99902.03
2023-02-01T14:26:02.036Z,99902.03
2023-02-01T14:27:36.190Z,99897.81
2023-02-01T14:29:20.708Z,99896.94
2023-02-01T14:30:55.586Z,99890.06
2023-02-01T14:32:35.112Z,99883.22
2023-02-01T14:34:12.737Z,99883.22
2023-02-01T14:35:44.709Z,99895.28
2023-02-01T14:37:19.238Z,99890.97
2023-02-01T14:38:51.621Z,99888.41
2023-02-01T14:40:27.948Z,99881.50
2023-02-01T14:42:07.016Z,99884.91
2023-02-01T14:43:54.371Z,99888.31
2023-02-01T14:45:28.252Z,99884.06
2023-02-01T14:47:06.122Z,99879.78
2023-02-01T14:48:37.954Z,99891.88
2023-02-01T14:50:28.860Z,99888.41
2023-02-01T14:52:01.283Z,99889.31
2023-02-01T14:53:36.057Z,99893.56
2023-02-01T14:55:08.425Z,99886.72
2023-02-01T14:56:40.338Z,99891.94
2023-02-01T14:58:26.960Z,99891.94
2023-02-01T15:00:07.666Z,99897.16
2023-02-01T15:01:40.758Z,99893.72
2023-02-01T15:03:15.442Z,99894.63
2023-02-01T15:04:47.331Z,99888.63
2023-02-01T15:06:29.673Z,99893.78
2023-02-01T15:08:04.784Z,99887.81
2023-02-01T15:09:38.372Z,99893.03
2023-02-01T15:11:12.611Z,99892.19
2023-02-01T15:12:47.948Z,99892.22
2023-02-01T15:14:19.831Z,99887.13
2023-02-01T15:16:01.744Z,99886.28
2023-02-01T15:17:36.551Z,99890.63
2023-02-01T15:19:10.519Z,99890.59
2023-02-01T15:20:47.035Z,99887.22
2023-02-01T15:22:30.604Z,99882.91
2023-02-01T15:24:22.360Z,99879.47
2023-02-01T15:25:54.408Z,99882.97
2023-02-01T15:27:26.899Z,99873.53
2023-02-01T15:28:59.336Z,99877.84
2023-02-01T15:30:32.655Z,99877.00
2023-02-01T15:32:06.198Z,99883.91
2023-02-01T15:33:38.283Z,99885.63
2023-02-01T15:35:28.528Z,99879.59
2023-02-01T15:37:05.565Z,99883.91
2023-02-01T15:38:44.314Z,99879.66
2023-02-01T15:40:23.309Z,99877.91
2023-02-01T15:41:59.225Z,99884.78
2023-02-01T15:43:32.185Z,99879.63
2023-02-01T15:45:04.313Z,99886.53
2023-02-01T15:46:43.917Z,99884.00
2023-02-01T15:48:18.300Z,99884.84
2023-02-01T15:49:56.912Z,99884.00
2023-02-01T15:51:30.876Z,99894.31
2023-02-01T15:53:02.680Z,99889.16
2023-02-01T15:54:45.623Z,99893.47
2023-02-01T15:56:17.675Z,99899.50
2023-02-01T15:57:49.659Z,99899.50
2023-02-01T15:59:25.691Z,99895.19
2023-02-01T16:01:02.931Z,99902.09
2023-02-01T16:02:40.254Z,99902.97
2023-02-01T16:04:15.125Z,99903.81
2023-02-01T16:05:47.536Z,99915.03
2023-02-01T16:07:26.406Z,99914.19
2023-02-01T16:09:03.073Z,99919.34
2023-02-01T16:10:39.732Z,99921.06
2023-02-01T16:12:25.746Z,99912.44
2023-02-01T16:14:03.230Z,99919.38
2023-02-01T16:15:35.209Z,99917.63
2023-02-01T16:17:07.102Z,99920.22
2023-02-01T16:18:38.956Z,99919.44
2023-02-01T16:20:11.092Z,99925.41
2023-02-01T16:21:42.988Z,99917.69
2023-02-01T16:23:15.725Z,99918.56
2023-02-01T16:24:47.630Z,99922.84
2023-02-01T16:26:19.889Z,99921.13
2023-02-01T16:27:51.837Z,99913.41
2023-02-01T16:29:23.742Z,99920.25
2023-02-01T16:30:58.663Z,99914.25
2023-02-01T16:32:30.701Z,99922.88
2023-02-01T16:34:02.547Z,99914.34
2023-02-01T16:35:38.701Z,99916.97
2023-02-01T16:37:12.675Z,99912.69
2023-02-01T16:38:44.670Z,99912.72
2023-02-01T16:40:16.793Z,99912.75
2023-02-01T16:41:48.731Z,99914.47
2023-02-01T16:43:24.354Z,99913.63
2023-02-01T16:44:56.299Z,99921.38
2023-02-01T16:46:36.607Z,99911.06
2023-02-01T16:48:08.518Z,99911.09
2023-02-01T16:49:40.450Z,99908.50
2023-02-01T16:51:13.221Z,99917.09
2023-02-01T16:52:45.043Z,99918.84
2023-02-01T16:54:17.216Z,99916.28
2023-02-01T16:55:50.731Z,99912.00
2023-02-01T16:57:27.244Z,99919.75
2023-02-01T16:58:59.220Z,99926.63
2023-02-01T17:00:32.443Z,99921.50
2023-02-01T17:02:04.473Z,99918.94
2023-02-01T17:03:36.442Z,99924.94
2023-02-01T17:05:08.543Z,99927.50
2023-02-01T17:06:40.584Z,99923.22
2023-02-01T17:08:12.481Z,99917.22
2023-02-01T17:09:44.250Z,99918.09
2023-02-01T17:11:17.178Z,99918.06
2023-02-01T17:12:48.996Z,99918.09
2023-02-01T17:14:22.755Z,99915.50
2023-02-01T17:16:05.046Z,99917.22
2023-02-01T17:17:39.361Z,99918.94
2023-02-01T17:19:13.809Z,99913.78
2023-02-01T17:20:48.043Z,99920.69
2023-02-01T17:22:23.560Z,99918.94
2023-02-01T17:23:55.935Z,99921.53
2023-02-01T17:25:28.418Z,99927.53
2023-02-01T17:27:00.618Z,99933.50
2023-02-01T17:28:32.428Z,99933.47
2023-02-01T17:30:04.574Z,99928.28
2023-02-01T17:31:37.988Z,99938.53
2023-02-01T17:33:22.232Z,99929.91
2023-02-01T17:34:54.565Z,99935.84
2023-02-01T17:36:27.276Z,99933.19
2023-02-01T17:37:59.203Z,99939.97
2023-02-01T17:39:49.274Z,99939.91
2023-02-01T17:41:21.246Z,99948.41
2023-02-01T17:42:58.151Z,99938.09
2023-02-01T18:49:55.403Z,99923.94
2023-02-01T18:51:27.283Z,99925.56
2023-02-01T18:52:59.966Z,99922.94
2023-02-01T18:54:32.096Z,99918.59
2023-02-01T18:56:04.039Z,99917.66
2023-02-01T18:57:35.989Z,99920.13
2023-02-01T18:59:09.515Z,99917.56
2023-02-01T19:00:42.101Z,99909.91
2023-02-01T19:02:14.035Z,99917.56
2023-02-01T19:03:48.514Z,99916.72
2023-02-01T19:05:25.653Z,99915.91
2023-02-01T19:06:59.768Z,99915.97
2023-02-01T19:08:32.394Z,99919.38
2023-02-01T19:10:06.591Z,99913.41
2023-02-01T19:11:38.524Z,99917.66
2023-02-01T19:13:13.577Z,99903.94
2023-02-01T19:14:45.462Z,99909.03
2023-02-01T19:16:17.389Z,99920.94
2023-02-01T19:17:50.068Z,99926.91
2023-02-01T19:19:22.069Z,99922.69
2023-02-01T19:20:55.371Z,99926.94
2023-02-01T19:22:27.682Z,99923.56
2023-02-01T19:23:59.666Z,99921.00
2023-02-01T19:25:31.670Z,99919.25
2023-02-01T19:27:03.559Z,99920.13
2023-02-01T19:28:35.401Z,99918.41
2023-02-01T19:30:07.773Z,99922.69
2023-02-01T19:31:39.772Z,99922.66
2023-02-01T19:33:11.667Z,99920.94
2023-02-01T19:34:43.571Z,99920.03
2023-02-01T19:36:15.457Z,99923.47
2023-02-01T19:37:47.934Z,99929.41
2023-02-01T19:39:25.320Z,99924.22
2023-02-01T19:40:57.303Z,99926.59
2023-02-01T19:42:29.362Z,99923.06
2023-02-01T19:44:01.373Z,99931.50
2023-02-01T19:45:33.219Z,99930.59
2023-02-01T19:47:05.279Z,99928.00
2023-02-01T19:48:37.179Z,99922.00
2023-02-01T19:50:11.712Z,99923.69
2023-02-01T19:51:45.130Z,99924.47
2023-02-01T19:53:17.197Z,99924.47
2023-02-01T19:54:49.062Z,99924.47
2023-02-01T19:56:20.904Z,99921.03